createdAt,value
2023-05-05T00:01:39.013Z,20.66
2023-05-05T00:03:40.720Z,20.59
2023-05-05T00:05:42.802Z,20.58
2023-05-05T00:07:46.025Z,20.60
2023-05-05T00:09:47.846Z,20.49
2023-05-05T00:11:49.504Z,20.43
2023-05-05T00:13:51.289Z,20.48
2023-05-05T00:15:54.591Z,20.55
2023-05-05T00:17:59.328Z,20.54
2023-05-05T00:20:01.480Z,20.49
2023-05-05T00:22:03.443Z,20.50
2023-05-05T00:24:05.996Z,20.52
2023-05-05T00:26:07.892Z,20.53
2023-05-05T00:28:09.914Z,20.53
2023-05-05T00:30:12.097Z,20.55
2023-05-05T00:32:15.273Z,20.52
2023-05-05T00:34:16.847Z,20.48
2023-05-05T00:36:18.495Z,20.49
2023-05-05T00:38:20.325Z,20.47
2023-05-05T00:40:22.242Z,20.51
2023-05-05T00:42:23.854Z,20.45
2023-05-05T00:44:38.478Z,20.43
2023-05-05T00:46:41.647Z,20.39
2023-05-05T00:48:45.414Z,20.34
2023-05-05T00:50:47.461Z,20.26
2023-05-05T00:52:50.156Z,20.32
2023-05-05T00:54:52.270Z,20.42
2023-05-05T00:56:54.260Z,20.37
2023-05-05T00:58:56.357Z,20.34
2023-05-05T01:00:58.168Z,20.34
2023-05-05T01:03:00.061Z,20.31
2023-05-05T01:05:03.967Z,20.27
2023-05-05T01:07:14.722Z,20.31
2023-05-05T01:09:24.530Z,20.31
2023-05-05T01:11:35.353Z,20.33
2023-05-05T01:13:46.408Z,20.31
2023-05-05T01:15:52.264Z,20.30
2023-05-05T01:17:58.919Z,20.26
2023-05-05T01:20:15.148Z,20.24
2023-05-05T01:22:22.768Z,20.18
2023-05-05T01:24:43.770Z,20.19
2023-05-05T01:27:00.352Z,20.16
2023-05-05T01:29:31.454Z,20.18
2023-05-05T01:31:52.272Z,20.19
2023-05-05T01:33:59.682Z,20.14
2023-05-05T01:36:07.578Z,20.12
2023-05-05T01:38:14.471Z,20.17
2023-05-05T01:40:21.337Z,20.15
2023-05-05T01:42:25.808Z,20.05
2023-05-05T01:44:28.844Z,20.03
2023-05-05T01:46:30.525Z,20.00
2023-05-05T01:48:33.704Z,20.01
2023-05-05T01:50:36.825Z,19.99
2023-05-05T01:52:39.994Z,19.98
2023-05-05T01:54:44.848Z,19.98
2023-05-05T01:56:47.875Z,19.94
2023-05-05T01:58:51.632Z,19.90
2023-05-05T02:00:57.053Z,19.85
2023-05-05T02:03:00.582Z,19.81
2023-05-05T02:05:07.303Z,19.72
2023-05-05T02:07:11.206Z,19.68
2023-05-05T02:09:15.154Z,19.64
2023-05-05T02:11:17.390Z,19.60
2023-05-05T02:13:21.242Z,19.57
2023-05-05T02:15:24.996Z,19.48
2023-05-05T02:17:27.612Z,19.45
2023-05-05T02:19:31.955Z,19.37
2023-05-05T02:21:35.078Z,19.37
2023-05-05T02:23:36.815Z,19.37
2023-05-05T02:25:41.941Z,19.38
2023-05-05T02:27:46.450Z,19.38
2023-05-05T02:29:51.656Z,19.41
2023-05-05T02:31:55.561Z,19.40
2023-05-05T02:33:59.490Z,19.36
2023-05-05T02:36:08.658Z,19.35
2023-05-05T02:38:14.779Z,19.34
2023-05-05T02:40:22.209Z,19.35
2023-05-05T02:42:27.652Z,19.33
2023-05-05T02:44:31.205Z,19.31
2023-05-05T02:46:33.111Z,19.26
2023-05-05T02:48:34.782Z,19.29
2023-05-05T02:50:36.405Z,19.31
2023-05-05T02:52:38.360Z,19.32
2023-05-05T02:54:41.620Z,19.30
2023-05-05T02:56:47.404Z,19.27
2023-05-05T02:58:53.936Z,19.27
2023-05-05T03:01:01.911Z,19.23
2023-05-05T03:03:08.270Z,19.26
2023-05-05T03:05:12.648Z,19.23
2023-05-05T03:07:20.939Z,19.18
2023-05-05T03:09:27.716Z,19.15
2023-05-05T03:11:35.252Z,19.11
2023-05-05T03:13:40.369Z,19.12
2023-05-05T03:15:46.593Z,19.13
2023-05-05T03:17:50.568Z,19.15
2023-05-05T03:19:52.489Z,19.17
2023-05-05T03:21:54.628Z,19.20
2023-05-05T03:23:57.736Z,19.16
2023-05-05T03:25:59.400Z,19.09
2023-05-05T03:28:02.378Z,19.11
2023-05-05T03:30:04.734Z,19.09
2023-05-05T03:32:07.691Z,19.04
2023-05-05T03:34:09.564Z,19.01
2023-05-05T03:36:11.270Z,19.01
2023-05-05T03:38:12.945Z,18.93
2023-05-05T03:40:14.803Z,18.89
2023-05-05T03:42:16.411Z,18.87
2023-05-05T03:44:19.423Z,18.85
2023-05-05T03:46:21.303Z,18.83
2023-05-05T03:48:22.963Z,18.86
2023-05-05T03:50:24.748Z,18.89
2023-05-05T03:52:26.671Z,18.92
2023-05-05T03:54:28.267Z,19.01
2023-05-05T03:56:29.942Z,18.97
2023-05-05T03:58:31.631Z,19.01
2023-05-05T04:00:34.711Z,19.00
2023-05-05T04:02:36.476Z,19.00
2023-05-05T04:04:39.589Z,19.00
2023-05-05T04:06:41.318Z,19.01
2023-05-05T04:08:43.075Z,18.97
2023-05-05T04:10:45.276Z,18.96
2023-05-05T04:12:46.954Z,18.94
2023-05-05T04:14:48.683Z,18.97
2023-05-05T04:16:51.797Z,18.94
2023-05-05T04:18:53.446Z,18.89
2023-05-05T04:20:55.256Z,18.86
2023-05-05T04:22:56.830Z,18.82
2023-05-05T04:24:58.594Z,18.78
2023-05-05T04:27:00.434Z,18.79
2023-05-05T04:29:02.105Z,18.79
2023-05-05T04:31:04.447Z,18.81
2023-05-05T04:33:07.472Z,18.80
2023-05-05T04:35:09.421Z,18.83
2023-05-05T04:37:11.085Z,18.83
2023-05-05T04:39:12.847Z,18.78
2023-05-05T04:41:14.899Z,18.78
2023-05-05T04:43:16.623Z,18.76
2023-05-05T04:45:18.422Z,18.75
2023-05-05T04:47:20.018Z,18.75
2023-05-05T04:49:23.106Z,18.72
2023-05-05T04:51:24.799Z,18.73
2023-05-05T04:53:26.452Z,18.75
2023-05-05T04:55:30.723Z,18.76
2023-05-05T04:57:32.280Z,18.75
2023-05-05T04:59:35.210Z,18.74
2023-05-05T05:01:38.595Z,18.71
2023-05-05T05:03:40.582Z,18.73
2023-05-05T05:05:43.656Z,18.72
2023-05-05T05:07:45.227Z,18.70
2023-05-05T05:09:46.845Z,18.68
2023-05-05T05:11:48.420Z,18.65
2023-05-05T05:13:50.241Z,18.72
2023-05-05T05:15:52.144Z,18.72
2023-05-05T05:17:53.818Z,18.74
2023-05-05T05:19:55.491Z,18.75
2023-05-05T05:21:58.538Z,18.75
2023-05-05T05:24:00.520Z,18.75
2023-05-05T05:26:02.416Z,18.77
2023-05-05T05:28:09.338Z,18.78
2023-05-05T05:30:12.197Z,18.79
2023-05-05T05:32:13.880Z,18.79
2023-05-05T05:34:15.606Z,18.76
2023-05-05T05:36:17.191Z,18.78
2023-05-05T05:38:20.127Z,18.78
2023-05-05T05:40:21.707Z,18.78
2023-05-05T05:42:23.326Z,18.83
2023-05-05T05:44:25.054Z,18.87
2023-05-05T05:46:26.762Z,18.88
2023-05-05T05:48:28.543Z,18.93
2023-05-05T05:50:30.178Z,18.98
2023-05-05T05:52:31.779Z,19.00
2023-05-05T05:54:34.716Z,19.04
2023-05-05T05:56:36.323Z,19.05
2023-05-05T05:58:37.964Z,19.06
2023-05-05T06:00:39.569Z,19.09
2023-05-05T06:02:41.267Z,19.19
2023-05-05T06:04:43.035Z,19.23
2023-05-05T06:06:44.815Z,19.31
2023-05-05T06:08:46.551Z,19.38
2023-05-05T06:10:49.475Z,19.39
2023-05-05T06:12:51.043Z,19.45
2023-05-05T06:14:52.624Z,19.54
2023-05-05T06:16:54.382Z,19.49
2023-05-05T06:18:55.964Z,19.52
2023-05-05T06:20:57.533Z,19.56
2023-05-05T06:22:59.141Z,19.64
2023-05-05T06:25:00.694Z,19.69
2023-05-05T06:27:03.828Z,19.76
2023-05-05T06:29:05.521Z,19.77
2023-05-05T06:31:07.256Z,19.74
2023-05-05T06:33:09.103Z,19.76
2023-05-05T06:35:10.787Z,19.78
2023-05-05T06:37:12.354Z,19.80
2023-05-05T06:39:15.912Z,19.88
2023-05-05T06:41:17.809Z,19.87
2023-05-05T06:43:20.856Z,19.90
2023-05-05T06:45:22.465Z,19.92
2023-05-05T06:47:24.120Z,19.95
2023-05-05T06:49:25.714Z,19.97
2023-05-05T06:51:27.287Z,20.01
2023-05-05T06:53:28.968Z,19.97
2023-05-05T06:55:31.011Z,20.01
2023-05-05T06:57:32.720Z,20.02
2023-05-05T06:59:35.661Z,20.08
2023-05-05T07:01:37.294Z,20.09
2023-05-05T07:03:38.986Z,20.17
2023-05-05T07:05:40.651Z,20.22
2023-05-05T07:07:50.687Z,20.29
2023-05-05T07:09:52.332Z,20.29
2023-05-05T07:11:54.376Z,20.31
2023-05-05T07:13:55.929Z,20.36
2023-05-05T07:15:59.464Z,20.47
2023-05-05T07:18:01.143Z,20.41
2023-05-05T07:20:02.795Z,20.54
2023-05-05T07:22:04.411Z,20.59
2023-05-05T07:24:06.661Z,20.66
2023-05-05T07:26:08.453Z,20.71
2023-05-05T07:28:10.336Z,20.78
2023-05-05T07:30:16.329Z,20.88
2023-05-05T07:32:21.261Z,20.91
2023-05-05T07:34:22.971Z,20.97
2023-05-05T07:36:24.725Z,21.00
2023-05-05T07:38:26.354Z,21.03
2023-05-05T07:40:27.973Z,21.13
2023-05-05T07:42:29.576Z,21.15
2023-05-05T07:44:31.157Z,21.26
2023-05-05T07:46:32.890Z,21.33
2023-05-05T07:48:35.985Z,21.31
2023-05-05T07:50:37.597Z,21.45
2023-05-05T07:54:43.672Z,21.57
2023-05-05T07:56:45.265Z,21.64
2023-05-05T07:58:46.794Z,21.66
2023-05-05T08:00:48.339Z,21.68
2023-05-05T08:02:50.109Z,21.79
2023-05-05T08:04:53.141Z,21.77
2023-05-05T08:06:54.682Z,21.87
2023-05-05T08:08:56.338Z,21.91
2023-05-05T08:10:57.964Z,21.99
2023-05-05T08:12:59.626Z,22.03
2023-05-05T08:15:01.233Z,22.07
2023-05-05T08:17:02.910Z,22.13
2023-05-05T08:19:09.693Z,22.18
2023-05-05T08:21:17.702Z,22.26
2023-05-05T08:23:19.414Z,22.32
2023-05-05T08:25:21.177Z,22.41
2023-05-05T08:27:22.783Z,22.45
2023-05-05T08:29:24.505Z,22.44
2023-05-05T08:31:27.113Z,22.51
2023-05-05T08:33:28.818Z,22.53
2023-05-05T08:35:30.389Z,22.59
2023-05-05T08:37:33.351Z,22.59
2023-05-05T08:39:34.968Z,22.61
2023-05-05T08:41:36.657Z,22.58
2023-05-05T08:43:38.340Z,22.63
2023-05-05T08:45:40.952Z,22.70
2023-05-05T08:47:42.938Z,22.76
2023-05-05T08:49:45.883Z,22.72
2023-05-05T08:51:48.187Z,22.77
2023-05-05T08:53:59.927Z,22.81
2023-05-05T08:56:04.132Z,22.84
2023-05-05T08:58:06.414Z,22.89
2023-05-05T09:00:09.182Z,22.92
2023-05-05T09:02:13.903Z,23.03
2023-05-05T09:04:16.113Z,23.06
2023-05-05T09:06:21.096Z,23.14
2023-05-05T09:08:23.022Z,23.18
2023-05-05T09:10:26.794Z,23.19
2023-05-05T09:12:30.639Z,23.25
2023-05-05T09:14:32.312Z,23.26
2023-05-05T09:16:33.986Z,23.26
2023-05-05T09:18:37.122Z,23.25
2023-05-05T09:20:40.007Z,23.32
2023-05-05T09:22:43.243Z,23.41
2023-05-05T09:24:54.939Z,23.48
2023-05-05T09:26:59.139Z,23.53
2023-05-05T09:29:01.673Z,23.56
2023-05-05T09:31:13.503Z,23.62
2023-05-05T09:33:29.156Z,23.59
2023-05-05T09:35:48.370Z,23.66
2023-05-05T09:37:50.204Z,23.66
2023-05-05T09:39:54.448Z,23.69
2023-05-05T09:41:56.073Z,23.67
2023-05-05T09:43:59.002Z,23.75
2023-05-05T09:46:07.535Z,23.81
2023-05-05T09:48:23.911Z,23.88
2023-05-05T09:50:25.757Z,23.92
2023-05-05T09:52:27.620Z,23.91
2023-05-05T09:54:30.417Z,23.94
2023-05-05T09:56:38.776Z,23.93
2023-05-05T09:58:40.424Z,23.92
2023-05-05T10:00:43.592Z,23.93
2023-05-05T10:02:45.662Z,23.95
2023-05-05T10:04:47.690Z,23.95
2023-05-05T10:06:49.354Z,24.04
2023-05-05T10:09:01.168Z,24.06
2023-05-05T10:11:04.567Z,24.08
2023-05-05T10:13:06.213Z,24.12
2023-05-05T10:15:09.858Z,24.14
2023-05-05T10:17:14.577Z,24.19
2023-05-05T10:19:17.605Z,24.28
2023-05-05T10:21:20.670Z,24.32
2023-05-05T10:23:23.708Z,24.38
2023-05-05T10:25:29.612Z,24.45
2023-05-05T10:27:38.545Z,24.45
2023-05-05T10:29:48.382Z,24.50
2023-05-05T10:31:53.916Z,24.54
2023-05-05T10:34:03.347Z,24.57
2023-05-05T10:36:06.069Z,24.57
2023-05-05T10:38:08.740Z,24.58
2023-05-05T10:40:11.109Z,24.57
2023-05-05T10:42:14.911Z,24.68
2023-05-05T10:44:16.735Z,24.71
2023-05-05T10:46:18.525Z,24.77
2023-05-05T10:48:29.962Z,24.85
2023-05-05T10:50:38.360Z,24.87
2023-05-05T10:52:47.584Z,24.90
2023-05-05T10:54:55.720Z,24.91
2023-05-05T10:56:59.550Z,24.86
2023-05-05T10:59:01.124Z,24.93
2023-05-05T11:01:03.158Z,24.89
2023-05-05T11:03:24.264Z,24.89
2023-05-05T11:05:25.962Z,24.97
2023-05-05T11:07:28.930Z,24.96
2023-05-05T11:09:30.499Z,24.86
2023-05-05T11:12:11.639Z,24.86
2023-05-05T11:14:22.045Z,24.89
2023-05-05T11:16:43.698Z,24.93
2023-05-05T11:18:45.401Z,24.93
2023-05-05T11:21:02.818Z,25.00
2023-05-05T11:23:24.424Z,24.99
2023-05-05T11:25:47.954Z,25.05
2023-05-05T11:28:04.711Z,25.07
2023-05-05T11:30:10.738Z,25.13
2023-05-05T11:32:13.216Z,25.21
2023-05-05T11:34:24.970Z,25.27
2023-05-05T11:36:39.813Z,25.37
2023-05-05T11:39:01.551Z,25.46
2023-05-05T11:41:13.595Z,25.56
2023-05-05T11:43:19.282Z,25.57
2023-05-05T11:45:22.746Z,25.65
2023-05-05T11:47:29.354Z,25.66
2023-05-05T11:49:32.272Z,25.71
2023-05-05T11:51:34.225Z,25.71
2023-05-05T11:53:35.984Z,25.66
2023-05-05T11:55:39.001Z,25.69
2023-05-05T11:57:40.658Z,25.70
2023-05-05T11:59:54.714Z,25.71
2023-05-05T12:01:56.432Z,25.77
2023-05-05T12:03:58.570Z,25.94
2023-05-05T12:06:00.457Z,26.21
2023-05-05T12:08:02.128Z,26.63
2023-05-05T12:10:04.364Z,26.67
2023-05-05T12:12:07.590Z,26.64
2023-05-05T12:14:09.423Z,26.55
2023-05-05T12:16:11.664Z,26.33
2023-05-05T12:18:18.348Z,26.33
2023-05-05T12:20:29.438Z,26.66
2023-05-05T12:22:31.060Z,26.61
2023-05-05T12:24:32.764Z,26.45
2023-05-05T12:26:34.476Z,26.25
2023-05-05T12:28:47.608Z,26.16
2023-05-05T12:30:56.270Z,26.07
2023-05-05T12:33:02.870Z,26.18
2023-05-05T12:35:06.330Z,26.03
2023-05-05T12:37:08.100Z,26.01
2023-05-05T12:39:09.709Z,25.95
2023-05-05T12:41:21.701Z,25.81
2023-05-05T12:43:28.605Z,25.74
2023-05-05T12:45:34.606Z,25.82
2023-05-05T12:47:36.342Z,26.04
2023-05-05T12:49:48.559Z,26.77
2023-05-05T12:51:54.350Z,27.27
2023-05-05T12:54:03.835Z,27.86
2023-05-05T12:56:05.925Z,27.95
2023-05-05T12:58:07.596Z,28.32
2023-05-05T13:00:16.457Z,28.51
2023-05-05T13:02:20.544Z,28.86
2023-05-05T13:04:23.637Z,29.14
2023-05-05T13:06:26.814Z,29.15
2023-05-05T13:08:42.636Z,29.13
2023-05-05T13:10:59.924Z,29.51
2023-05-05T13:13:02.547Z,29.76
2023-05-05T13:15:05.644Z,29.74
2023-05-05T13:17:08.272Z,29.52
2023-05-05T13:19:12.429Z,29.33
2023-05-05T13:21:14.148Z,29.37
2023-05-05T13:23:15.766Z,29.34
2023-05-05T13:25:17.404Z,29.33
2023-05-05T13:27:19.075Z,29.34
2023-05-05T13:29:20.707Z,29.48
2023-05-05T13:31:22.535Z,29.44
2023-05-05T13:33:24.912Z,29.79
2023-05-05T13:35:27.902Z,29.79
2023-05-05T13:37:29.512Z,29.91
2023-05-05T13:39:32.782Z,29.96
2023-05-05T13:41:34.491Z,29.83
2023-05-05T13:43:36.518Z,29.33
2023-05-05T13:45:41.958Z,29.10
2023-05-05T13:47:43.892Z,28.86
2023-05-05T13:49:47.921Z,28.69
2023-05-05T13:51:50.880Z,28.47
2023-05-05T13:53:52.534Z,28.23
2023-05-05T13:55:54.236Z,28.03
2023-05-05T13:57:55.919Z,27.82
2023-05-05T13:59:57.602Z,27.70
2023-05-05T14:01:59.183Z,27.66
2023-05-05T14:04:03.668Z,27.53
2023-05-05T14:06:07.427Z,27.46
2023-05-05T14:08:11.317Z,27.32
2023-05-05T14:10:13.414Z,27.22
2023-05-05T14:12:15.090Z,27.13
2023-05-05T14:14:17.061Z,27.17
2023-05-05T14:16:19.106Z,27.09
2023-05-05T14:18:20.893Z,27.05
2023-05-05T14:20:22.771Z,27.10
2023-05-05T14:22:24.743Z,27.13
2023-05-05T14:24:27.863Z,27.15
2023-05-05T14:26:29.408Z,27.06
2023-05-05T14:28:31.199Z,26.97
2023-05-05T14:30:33.127Z,26.99
2023-05-05T14:32:34.745Z,26.92
2023-05-05T14:34:36.838Z,26.92
2023-05-05T14:36:38.512Z,26.90
2023-05-05T14:38:40.258Z,26.83
2023-05-05T14:40:43.279Z,26.85
2023-05-05T14:42:44.862Z,26.79
2023-05-05T14:44:46.736Z,26.74
2023-05-05T14:46:50.955Z,26.66
2023-05-05T14:48:52.838Z,26.55
2023-05-05T14:50:54.729Z,26.49
2023-05-05T14:52:56.458Z,26.46
2023-05-05T14:54:58.142Z,26.44
2023-05-05T14:57:01.197Z,26.39
2023-05-05T14:59:02.823Z,26.30
2023-05-05T15:01:04.623Z,26.32
2023-05-05T15:03:06.486Z,26.28
2023-05-05T15:05:08.748Z,26.22
2023-05-05T15:07:10.583Z,26.18
2023-05-05T15:09:12.245Z,26.14
2023-05-05T15:11:13.882Z,26.14
2023-05-05T15:13:16.930Z,26.10
2023-05-05T15:15:18.665Z,26.07
2023-05-05T15:17:20.438Z,26.03
2023-05-05T15:19:22.281Z,26.00
2023-05-05T15:21:23.911Z,25.97
2023-05-05T15:23:25.551Z,26.01
2023-05-05T15:25:27.105Z,26.03
2023-05-05T15:27:28.826Z,26.06
2023-05-05T15:29:31.820Z,26.04
2023-05-05T15:31:33.398Z,26.07
2023-05-05T15:33:35.047Z,26.01
2023-05-05T15:35:36.784Z,25.93
2023-05-05T15:37:38.366Z,25.82
2023-05-05T15:39:39.954Z,25.74
2023-05-05T15:41:41.565Z,25.60
2023-05-05T15:43:43.160Z,25.55
2023-05-05T15:45:46.228Z,25.55
2023-05-05T15:47:47.931Z,25.56
2023-05-05T15:49:49.647Z,25.52
2023-05-05T15:51:51.295Z,25.47
2023-05-05T15:53:52.989Z,25.42
2023-05-05T15:55:54.577Z,25.41
2023-05-05T15:57:56.238Z,25.35
2023-05-05T15:59:57.848Z,25.33
2023-05-05T16:02:00.933Z,25.34
2023-05-05T16:04:02.534Z,25.30
2023-05-05T16:06:04.226Z,25.25
2023-05-05T16:08:05.817Z,25.17
2023-05-05T16:10:08.829Z,25.16
2023-05-05T16:12:10.674Z,25.13
2023-05-05T16:14:12.612Z,25.08
2023-05-05T16:16:14.234Z,25.07
2023-05-05T16:18:17.627Z,25.02
2023-05-05T16:20:19.321Z,24.97
2023-05-05T16:22:20.948Z,24.93
2023-05-05T16:24:23.218Z,24.93
2023-05-05T16:26:25.153Z,24.69
2023-05-05T16:28:27.099Z,24.50
2023-05-05T16:30:28.695Z,24.41
2023-05-05T16:32:30.320Z,24.39
2023-05-05T16:34:33.452Z,24.27
2023-05-05T16:36:35.442Z,24.18
2023-05-05T16:38:37.456Z,24.21
2023-05-05T16:40:39.539Z,24.21
2023-05-05T16:42:42.966Z,24.14
2023-05-05T16:44:45.933Z,24.03
2023-05-05T16:46:47.550Z,24.01
2023-05-05T16:48:49.479Z,23.99
2023-05-05T16:50:56.354Z,23.96
2023-05-05T16:52:58.266Z,23.98
2023-05-05T16:55:00.403Z,23.99
2023-05-05T16:57:04.967Z,23.95
2023-05-05T16:59:06.677Z,23.88
2023-05-05T17:01:08.574Z,23.82
2023-05-05T17:03:10.340Z,23.77
2023-05-05T17:05:12.498Z,23.78
2023-05-05T17:07:16.346Z,23.69
2023-05-05T17:09:18.026Z,23.55
2023-05-05T17:11:19.629Z,23.47
2023-05-05T17:13:21.776Z,23.39
2023-05-05T17:15:23.317Z,23.37
2023-05-05T17:17:25.153Z,23.39
2023-05-05T17:19:27.027Z,23.37
2023-05-05T17:21:28.716Z,23.33
2023-05-05T17:23:31.691Z,23.27
2023-05-05T17:25:33.399Z,23.24
2023-05-05T17:27:35.244Z,23.23
2023-05-05T17:29:36.878Z,23.22
2023-05-05T17:31:38.641Z,23.17
2023-05-05T17:33:40.223Z,23.20
2023-05-05T17:35:42.139Z,23.17
2023-05-05T17:37:43.825Z,23.20
2023-05-05T17:39:46.830Z,23.14
2023-05-05T17:41:48.451Z,23.10
2023-05-05T17:43:50.044Z,23.05
2023-05-05T17:45:51.738Z,23.05
2023-05-05T17:47:53.403Z,22.99
2023-05-05T17:49:56.993Z,22.96
2023-05-05T17:51:58.753Z,22.90
2023-05-05T17:54:00.458Z,22.88
2023-05-05T17:56:03.794Z,22.83
2023-05-05T17:58:05.353Z,22.83
2023-05-05T18:00:08.117Z,22.82
2023-05-05T18:02:10.172Z,22.85
2023-05-05T18:04:11.845Z,22.86
2023-05-05T18:06:13.527Z,22.86
2023-05-05T18:08:15.227Z,22.82
2023-05-05T18:10:16.977Z,22.77
2023-05-05T18:12:20.086Z,22.71
2023-05-05T18:14:21.944Z,22.65
2023-05-05T18:16:23.678Z,22.63
2023-05-05T18:18:25.479Z,22.65
2023-05-05T18:20:29.553Z,22.67
2023-05-05T18:22:31.605Z,22.57
2023-05-05T18:24:33.263Z,22.55
2023-05-05T18:26:35.551Z,22.51
2023-05-05T18:28:38.909Z,22.48
2023-05-05T18:30:40.730Z,22.41
2023-05-05T18:32:42.508Z,22.43
2023-05-05T18:34:44.600Z,22.30
2023-05-05T18:36:46.799Z,22.27
2023-05-05T18:38:49.888Z,22.28
2023-05-05T18:40:51.763Z,22.28
2023-05-05T18:42:53.548Z,22.30
2023-05-05T18:44:56.632Z,22.37
2023-05-05T18:46:58.816Z,22.32
2023-05-05T18:49:00.852Z,22.28
2023-05-05T18:51:03.143Z,22.26
2023-05-05T18:53:04.863Z,22.26
2023-05-05T18:55:07.320Z,22.19
2023-05-05T18:57:09.525Z,22.16
2023-05-05T18:59:12.441Z,22.16
2023-05-05T19:01:18.144Z,22.17
2023-05-05T19:03:20.158Z,22.14
2023-05-05T19:05:22.102Z,22.10
2023-05-05T19:07:34.260Z,22.09
2023-05-05T19:09:36.850Z,22.09
2023-05-05T19:11:38.755Z,22.03
2023-05-05T19:13:41.597Z,22.02
2023-05-05T19:15:43.388Z,21.97
2023-05-05T19:17:46.617Z,21.99
2023-05-05T19:19:49.627Z,22.00
2023-05-05T19:21:51.377Z,22.00
2023-05-05T19:23:53.404Z,21.92
2023-05-05T19:25:55.323Z,21.87
2023-05-05T19:27:57.066Z,21.86
2023-05-05T19:29:58.881Z,21.88
2023-05-05T19:32:00.759Z,21.87
2023-05-05T19:34:05.308Z,21.83
2023-05-05T19:36:07.326Z,21.82
2023-05-05T19:38:10.331Z,21.80
2023-05-05T19:40:13.277Z,21.80
2023-05-05T19:42:16.066Z,21.78
2023-05-05T19:44:17.660Z,21.80
2023-05-05T19:46:20.061Z,21.78
2023-05-05T19:48:22.291Z,21.73
2023-05-05T19:50:25.690Z,21.70
2023-05-05T19:52:27.713Z,21.64
2023-05-05T19:54:30.087Z,21.58
2023-05-05T19:56:31.803Z,21.58
2023-05-05T19:58:52.963Z,21.54
2023-05-05T20:00:54.673Z,21.51
2023-05-05T20:02:56.498Z,21.44
2023-05-05T20:04:58.254Z,21.41
2023-05-05T20:07:01.383Z,21.37
2023-05-05T20:09:03.426Z,21.36
2023-05-05T20:11:05.523Z,21.33
2023-05-05T20:13:07.217Z,21.27
2023-05-05T20:15:10.542Z,21.27
2023-05-05T20:17:12.205Z,21.27
2023-05-05T20:19:15.450Z,21.20
2023-05-05T20:21:17.556Z,21.13
2023-05-05T20:23:20.887Z,21.14
2023-05-05T20:25:22.762Z,21.11
2023-05-05T20:27:26.664Z,21.03
2023-05-05T20:29:29.873Z,21.04
2023-05-05T20:31:31.624Z,21.03
2023-05-05T20:33:33.377Z,20.99
2023-05-05T20:35:35.228Z,21.00
2023-05-05T20:37:36.822Z,20.96
2023-05-05T20:39:39.875Z,20.98
2023-05-05T20:41:41.702Z,20.97
2023-05-05T20:43:43.661Z,20.94
2023-05-05T20:45:45.260Z,20.93
2023-05-05T20:47:47.217Z,20.92
2023-05-05T20:49:48.978Z,20.85
2023-05-05T20:51:50.616Z,20.84
2023-05-05T20:53:52.441Z,20.89
2023-05-05T20:55:55.499Z,20.91
2023-05-05T20:57:57.161Z,20.89
2023-05-05T20:59:59.627Z,20.91
2023-05-05T21:02:01.396Z,20.89
2023-05-05T21:04:03.102Z,20.89
2023-05-05T21:06:05.113Z,20.89
2023-05-05T21:08:07.160Z,20.84
2023-05-05T21:10:09.869Z,20.82
2023-05-05T21:12:13.127Z,20.84
2023-05-05T21:14:14.799Z,20.81
2023-05-05T21:16:16.634Z,20.74
2023-05-05T21:18:18.363Z,20.76
2023-05-05T21:20:20.317Z,20.78
2023-05-05T21:22:22.467Z,20.80
2023-05-05T21:24:24.519Z,20.78
2023-05-05T21:26:26.168Z,20.76
2023-05-05T21:28:29.238Z,20.72
2023-05-05T21:30:30.856Z,20.68
2023-05-05T21:32:32.514Z,20.64
2023-05-05T21:34:34.325Z,20.63
2023-05-05T21:36:36.079Z,20.64
2023-05-05T21:38:37.724Z,20.61
2023-05-05T21:40:39.393Z,20.64
2023-05-05T21:42:41.348Z,20.63
2023-05-05T21:44:44.357Z,20.55
2023-05-05T21:46:46.419Z,20.52
2023-05-05T21:48:48.059Z,20.42
2023-05-05T21:50:49.802Z,20.43
2023-05-05T21:52:51.556Z,20.44
2023-05-05T21:54:53.261Z,20.45
2023-05-05T21:56:54.849Z,20.42
2023-05-05T21:58:56.577Z,20.40
2023-05-05T22:00:59.707Z,20.40
2023-05-05T22:03:01.391Z,20.44
2023-05-05T22:05:03.211Z,20.47
2023-05-05T22:07:05.020Z,20.44
2023-05-05T22:09:06.655Z,20.40
2023-05-05T22:11:08.390Z,20.33
2023-05-05T22:13:10.036Z,20.35
2023-05-05T22:15:11.942Z,20.29
2023-05-05T22:17:15.510Z,20.22
2023-05-05T22:19:19.021Z,20.15
2023-05-05T22:21:21.072Z,20.11
2023-05-05T22:23:22.746Z,20.24
2023-05-05T22:25:24.436Z,20.13
2023-05-05T22:27:26.079Z,20.14
2023-05-05T22:29:27.667Z,20.08
2023-05-05T22:31:29.552Z,20.08
2023-05-05T22:33:32.589Z,20.07
2023-05-05T22:35:34.282Z,20.07
2023-05-05T22:37:36.046Z,20.06
2023-05-05T22:39:37.941Z,20.07
2023-05-05T22:41:39.543Z,20.04
2023-05-05T22:43:41.219Z,20.00
2023-05-05T22:45:43.431Z,19.98
2023-05-05T22:47:45.024Z,19.95
2023-05-05T22:49:48.084Z,20.04
2023-05-05T22:51:49.641Z,20.04
2023-05-05T22:53:51.189Z,20.03
2023-05-05T22:55:52.863Z,20.02
2023-05-05T22:57:54.969Z,20.05
2023-05-05T22:59:56.456Z,20.00
2023-05-05T23:01:58.077Z,19.99
2023-05-05T23:04:00.188Z,19.99
2023-05-05T23:06:03.368Z,19.97
2023-05-05T23:08:05.047Z,19.96
2023-05-05T23:10:07.477Z,19.95
2023-05-05T23:12:09.044Z,19.94
2023-05-05T23:14:11.034Z,19.92
2023-05-05T23:16:12.694Z,19.89
2023-05-05T23:18:14.365Z,19.84
2023-05-05T23:20:16.259Z,19.79
2023-05-05T23:22:19.428Z,19.76
2023-05-05T23:24:21.889Z,19.73
2023-05-05T23:26:23.456Z,19.69
2023-05-05T23:28:25.049Z,19.67
2023-05-05T23:30:26.678Z,19.64
2023-05-05T23:32:28.365Z,19.62
2023-05-05T23:34:29.989Z,19.60
2023-05-05T23:36:31.822Z,19.54
2023-05-05T23:38:34.930Z,19.50
2023-05-05T23:40:36.826Z,19.51
2023-05-05T23:42:38.454Z,19.51
2023-05-05T23:44:40.361Z,19.52
2023-05-05T23:46:42.015Z,19.56
2023-05-05T23:48:43.804Z,19.55
2023-05-05T23:50:45.548Z,19.57
2023-05-05T23:52:47.287Z,19.51
2023-05-05T23:54:50.222Z,19.54
2023-05-05T23:56:51.847Z,19.56
2023-05-05T23:58:53.485Z,19.47
